Time;durP1;ratioP1;P1;durP2;ratioP2;P2;SDS_P1;SDS_P2;PMS_P1;PMS_P2;Temp;Humidity;BMP_temperature;BMP_pressure;BME280_temperature;BME280_humidity;BME280_pressure;Samples;Min_cycle;Max_cycle;Signal;HPM_P1;HPM_P2
2022/05/13 00:03:01;;;;;;;7.43;1.70;;;12.70;99.90;;;;;;6274665;28;20227;-67
2022/05/13 00:06:07;;;;;;;10.60;1.50;;;12.60;99.90;;;;;;6275126;28;20208;-67
2022/05/13 00:09:12;;;;;;;6.65;1.40;;;12.70;99.90;;;;;;6274187;28;20250;-66
2022/05/13 00:12:18;;;;;;;4.90;1.30;;;12.60;99.90;;;;;;6273928;28;20247;-67
2022/05/13 00:15:29;;;;;;;6.43;1.55;;;12.50;99.90;;;;;;6273224;28;20200;-66
2022/05/13 00:18:34;;;;;;;2.00;1.60;;;12.40;99.90;;;;;;6274124;28;20231;-67
2022/05/13 00:21:40;;;;;;;7.43;1.60;;;12.40;99.90;;;;;;6274826;28;20577;-66
2022/05/13 00:24:47;;;;;;;3.03;1.30;;;12.40;99.90;;;;;;6256507;28;20240;-67
2022/05/13 00:27:54;;;;;;;4.82;1.60;;;12.40;99.90;;;;;;6272834;28;20240;-67
2022/05/13 00:31:04;;;;;;;3.67;1.50;;;12.40;99.90;;;;;;6273918;28;20643;-66
2022/05/13 00:34:11;;;;;;;4.32;1.50;;;12.50;99.90;;;;;;6274324;28;20232;-66
2022/05/13 00:37:18;;;;;;;3.17;1.48;;;12.40;99.90;;;;;;6273711;28;20232;-66
2022/05/13 00:40:30;;;;;;;8.43;1.67;;;12.40;99.90;;;;;;6274260;28;20204;-66
2022/05/13 00:43:47;;;;;;;1.50;1.40;;;12.40;99.90;;;;;;6273614;28;20601;-68
2022/05/13 00:46:54;;;;;;;1.95;1.73;;;12.30;99.90;;;;;;6273448;28;20217;-68
2022/05/13 00:50:04;;;;;;;3.25;1.55;;;12.40;99.90;;;;;;6274179;28;20256;-67
2022/05/13 00:53:10;;;;;;;3.08;1.40;;;12.30;99.90;;;;;;6272104;28;20243;-67
2022/05/13 00:56:15;;;;;;;3.28;1.30;;;12.30;99.90;;;;;;6274146;28;20235;-67
2022/05/13 00:59:24;;;;;;;2.92;1.60;;;12.30;99.90;;;;;;6273427;28;20239;-69
2022/05/13 01:02:33;;;;;;;3.95;1.55;;;12.20;99.90;;;;;;6273390;28;20311;-67
2022/05/13 01:05:38;;;;;;;5.55;1.70;;;12.20;99.90;;;;;;6273463;28;20292;-67
2022/05/13 01:08:44;;;;;;;7.35;1.83;;;12.10;99.90;;;;;;6272801;28;20246;-68
2022/05/13 01:11:57;;;;;;;7.65;1.95;;;12.10;99.90;;;;;;6273929;28;20220;-66
2022/05/13 01:15:08;;;;;;;10.85;1.88;;;12.20;99.90;;;;;;6272783;28;20223;-66
2022/05/13 01:18:30;;;;;;;4.93;1.95;;;12.10;99.90;;;;;;6272544;28;20232;-67
2022/05/13 01:21:37;;;;;;;8.45;2.00;;;12.00;99.90;;;;;;6273951;28;20207;-67
2022/05/13 01:24:43;;;;;;;4.25;1.80;;;12.00;99.90;;;;;;6272757;28;20250;-67
2022/05/13 01:27:49;;;;;;;4.43;2.08;;;11.90;99.90;;;;;;6272471;28;20227;-67
2022/05/13 01:30:58;;;;;;;7.35;1.80;;;11.80;99.90;;;;;;6254897;28;20200;-68
2022/05/13 01:34:08;;;;;;;3.75;1.52;;;11.80;99.90;;;;;;6272733;28;20231;-67
2022/05/13 01:37:15;;;;;;;4.60;2.58;;;11.70;99.90;;;;;;6272664;28;20236;-66
2022/05/13 01:40:21;;;;;;;1.80;1.35;;;11.80;99.90;;;;;;6273017;28;20200;-68
2022/05/13 01:43:28;;;;;;;3.97;1.63;;;11.70;99.90;;;;;;6272319;28;20231;-67
2022/05/13 01:46:34;;;;;;;9.50;2.03;;;11.70;99.90;;;;;;6272970;28;20218;-67
2022/05/13 01:49:39;;;;;;;3.38;1.52;;;11.70;99.90;;;;;;6272126;28;20602;-67
2022/05/13 01:52:46;;;;;;;8.70;2.00;;;11.70;99.90;;;;;;6270985;28;20240;-66
2022/05/13 01:55:52;;;;;;;3.72;1.55;;;11.50;99.90;;;;;;6271883;28;20673;-67
2022/05/13 01:58:57;;;;;;;3.65;1.70;;;11.50;99.90;;;;;;6272236;28;20238;-68
2022/05/13 02:02:03;;;;;;;6.38;1.70;;;11.50;99.90;;;;;;6271735;28;20200;-67
2022/05/13 02:05:09;;;;;;;2.13;1.73;;;11.50;99.90;;;;;;6272325;28;20204;-67
2022/05/13 02:08:25;;;;;;;5.85;1.70;;;11.50;99.90;;;;;;6272020;28;20243;-67
2022/05/13 02:11:32;;;;;;;3.50;1.65;;;11.50;99.90;;;;;;6272461;28;20234;-66
2022/05/13 02:14:37;;;;;;;3.00;1.90;;;11.30;99.90;;;;;;6271589;28;20238;-66
2022/05/13 02:17:42;;;;;;;6.32;1.70;;;11.30;99.90;;;;;;6271892;28;20596;-66
2022/05/13 02:20:48;;;;;;;7.13;1.70;;;11.30;99.90;;;;;;6272392;28;20214;-66
2022/05/13 02:23:55;;;;;;;5.10;1.48;;;11.30;99.90;;;;;;6271407;28;20232;-66
2022/05/13 02:27:01;;;;;;;3.15;1.80;;;11.30;99.90;;;;;;6271515;28;20214;-66
2022/05/13 02:30:09;;;;;;;3.45;1.77;;;11.20;99.90;;;;;;6272008;28;20218;-67
2022/05/13 02:33:16;;;;;;;3.88;1.70;;;11.10;99.90;;;;;;6271295;28;20232;-67
2022/05/13 02:36:21;;;;;;;6.00;2.17;;;11.10;99.90;;;;;;6271774;28;20206;-67
2022/05/13 02:39:28;;;;;;;7.15;1.80;;;11.10;99.90;;;;;;6271116;28;20240;-67
2022/05/13 02:42:33;;;;;;;9.38;2.00;;;11.00;99.90;;;;;;6270811;28;20602;-67
2022/05/13 02:45:39;;;;;;;10.15;2.15;;;10.90;99.90;;;;;;6271952;28;20684;-66
2022/05/13 02:48:46;;;;;;;12.32;2.10;;;10.90;99.90;;;;;;6271322;28;20239;-67
2022/05/13 02:51:51;;;;;;;3.40;1.83;;;10.90;99.90;;;;;;6271984;28;20218;-67
2022/05/13 02:54:58;;;;;;;9.50;2.20;;;10.70;99.90;;;;;;6271253;28;20234;-67
2022/05/13 02:58:04;;;;;;;5.10;2.17;;;10.70;99.90;;;;;;6270831;28;20239;-67
2022/05/13 03:01:14;;;;;;;4.00;1.52;;;10.80;99.90;;;;;;6270978;28;20212;-70
2022/05/13 03:04:20;;;;;;;3.95;1.80;;;10.80;99.90;;;;;;6267261;28;20231;-67
2022/05/13 03:07:25;;;;;;;4.95;1.65;;;10.70;99.90;;;;;;6274242;28;20237;-68
2022/05/13 03:10:35;;;;;;;10.25;2.17;;;10.80;99.90;;;;;;6275580;28;20575;-68
2022/05/13 03:13:40;;;;;;;5.85;1.63;;;10.70;99.90;;;;;;6274098;28;20687;-66
2022/05/13 03:16:46;;;;;;;5.50;1.88;;;10.80;99.90;;;;;;6256218;28;20212;-66
2022/05/13 03:19:51;;;;;;;8.23;1.88;;;10.70;99.90;;;;;;6273982;28;20231;-66
2022/05/13 03:22:56;;;;;;;4.55;2.30;;;10.70;99.90;;;;;;6274646;28;20547;-68
2022/05/13 03:26:06;;;;;;;7.80;1.63;;;10.80;99.90;;;;;;6274683;28;20210;-67
2022/05/13 03:29:11;;;;;;;11.13;1.92;;;10.80;99.90;;;;;;6273863;28;20228;-67
2022/05/13 03:32:17;;;;;;;5.88;2.20;;;10.80;99.90;;;;;;6273717;28;20235;-66
2022/05/13 03:35:23;;;;;;;2.92;1.70;;;10.80;99.90;;;;;;6274304;28;20685;-67
2022/05/13 03:38:29;;;;;;;6.75;2.20;;;10.70;99.90;;;;;;6274140;28;20243;-66
2022/05/13 03:41:36;;;;;;;5.05;2.05;;;10.70;99.90;;;;;;6274308;28;20204;-67
2022/05/13 03:44:41;;;;;;;6.10;1.63;;;10.70;99.90;;;;;;6274312;28;20290;-67
2022/05/13 03:47:49;;;;;;;7.65;2.00;;;10.70;99.90;;;;;;6274540;28;20228;-66
2022/05/13 03:50:54;;;;;;;8.30;1.92;;;10.70;99.90;;;;;;6278531;28;20231;-67
2022/05/13 03:53:59;;;;;;;3.10;1.60;;;10.80;99.90;;;;;;6278467;28;20228;-67
2022/05/13 03:57:07;;;;;;;2.72;2.00;;;10.90;99.90;;;;;;6274415;28;20208;-67
2022/05/13 04:00:15;;;;;;;6.88;2.10;;;10.90;99.90;;;;;;6274868;28;20220;-66
2022/05/13 04:03:21;;;;;;;5.60;1.80;;;11.00;99.90;;;;;;6273424;28;20242;-66
2022/05/13 04:09:53;;;;;;;11.23;2.20;;;11.10;99.90;;;;;;6233000;28;1143848;-66
2022/05/13 04:16:22;;;;;;;7.38;2.00;;;11.10;99.90;;;;;;6276180;28;20205;-67
2022/05/13 04:19:28;;;;;;;5.68;2.03;;;11.20;99.90;;;;;;6276281;28;20254;-68
2022/05/13 04:22:33;;;;;;;8.52;2.10;;;11.20;99.90;;;;;;6287832;28;20253;-65
2022/05/13 04:25:38;;;;;;;4.32;1.80;;;11.20;99.90;;;;;;6294159;28;20271;-65
2022/05/13 04:28:56;;;;;;;4.93;2.08;;;11.20;99.90;;;;;;6295022;28;20742;-64
2022/05/13 04:32:01;;;;;;;7.90;2.05;;;11.30;99.90;;;;;;6286555;28;20208;-67
2022/05/13 04:35:08;;;;;;;11.40;1.80;;;11.20;99.90;;;;;;6274139;28;20204;-66
2022/05/13 04:38:15;;;;;;;6.63;2.05;;;11.30;99.90;;;;;;6273451;28;20235;-66
2022/05/13 04:44:53;;;;;;;6.07;1.90;;;11.20;99.90;;;;;;6201760;28;20232;-66
2022/05/13 04:48:17;;;;;;;3.30;1.80;;;11.30;99.90;;;;;;6273512;28;20236;-67
2022/05/13 04:51:23;;;;;;;3.45;1.77;;;11.30;99.90;;;;;;6274492;28;20208;-66
2022/05/13 04:54:28;;;;;;;9.02;2.13;;;11.30;99.90;;;;;;6273101;28;20244;-68
2022/05/13 04:57:33;;;;;;;5.03;1.60;;;11.30;99.90;;;;;;6274347;28;20224;-67
2022/05/13 05:00:40;;;;;;;2.70;1.70;;;11.30;99.90;;;;;;6273813;28;20628;-67
2022/05/13 05:03:46;;;;;;;6.93;2.17;;;11.30;99.90;;;;;;6273483;28;20661;-67
2022/05/13 05:06:51;;;;;;;8.15;1.60;;;11.30;99.90;;;;;;6273492;28;20208;-67
2022/05/13 05:09:57;;;;;;;7.53;2.25;;;11.40;99.90;;;;;;6272890;28;20205;-65
2022/05/13 05:13:02;;;;;;;4.40;1.90;;;11.50;99.90;;;;;;6272889;28;20583;-66
2022/05/13 05:16:09;;;;;;;6.22;1.88;;;11.40;99.90;;;;;;6273791;28;20204;-66
2022/05/13 05:19:14;;;;;;;9.52;2.03;;;11.30;99.90;;;;;;6255083;28;20277;-68
2022/05/13 05:22:19;;;;;;;9.20;2.90;;;11.50;99.90;;;;;;6273223;28;20223;-67
2022/05/13 05:25:28;;;;;;;4.93;2.10;;;11.60;99.90;;;;;;6273397;28;20659;-67
2022/05/13 05:28:37;;;;;;;4.63;1.63;;;11.70;99.90;;;;;;6272105;28;20228;-67
2022/05/13 05:31:44;;;;;;;6.03;1.83;;;11.70;99.90;;;;;;6273200;28;20207;-68
2022/05/13 05:34:50;;;;;;;5.57;1.60;;;11.90;99.90;;;;;;6255503;28;20233;-66
2022/05/13 05:37:55;;;;;;;7.55;2.00;;;11.90;99.90;;;;;;6272619;28;20236;-67
2022/05/13 05:41:02;;;;;;;3.80;1.42;;;11.80;99.90;;;;;;6273120;28;20696;-68
2022/05/13 05:44:07;;;;;;;4.22;1.80;;;11.80;99.90;;;;;;6272143;28;20333;-67
2022/05/13 05:47:14;;;;;;;5.15;1.95;;;11.90;99.90;;;;;;6272475;28;20240;-66
2022/05/13 05:50:21;;;;;;;4.15;1.83;;;11.90;99.90;;;;;;6272370;28;20207;-66
2022/05/13 06:00:14;;;;;;;7.35;2.03;;;12.10;99.90;;;;;;6272130;28;20228;-66
2022/05/13 06:03:24;;;;;;;4.22;1.83;;;12.10;99.90;;;;;;6271902;28;20228;-66
2022/05/13 06:06:30;;;;;;;6.30;1.85;;;12.10;99.90;;;;;;6272867;28;20551;-67
2022/05/13 06:09:38;;;;;;;7.15;1.83;;;12.10;99.90;;;;;;6271047;28;20236;-65
2022/05/13 06:12:43;;;;;;;6.47;2.33;;;12.10;99.90;;;;;;6245935;28;20234;-68
2022/05/13 06:15:49;;;;;;;4.82;1.98;;;12.10;99.90;;;;;;6248271;28;20509;-66
2022/05/13 06:18:59;;;;;;;4.05;1.88;;;12.10;99.90;;;;;;6246626;28;20247;-66
2022/05/13 06:22:06;;;;;;;9.05;2.05;;;12.20;99.90;;;;;;6247148;28;20229;-67
2022/05/13 06:25:17;;;;;;;6.00;1.70;;;12.20;99.90;;;;;;6247678;28;20687;-67
2022/05/13 06:28:25;;;;;;;5.47;1.73;;;12.30;99.90;;;;;;6247423;28;20240;-67
2022/05/13 06:31:30;;;;;;;4.20;1.88;;;12.50;99.90;;;;;;6247847;28;20247;-67
2022/05/13 06:34:37;;;;;;;5.13;1.90;;;12.60;99.90;;;;;;6246734;28;20553;-67
2022/05/13 06:37:42;;;;;;;5.55;2.03;;;12.70;99.90;;;;;;6246574;28;20232;-68
2022/05/13 06:40:48;;;;;;;18.45;2.58;;;12.70;99.90;;;;;;6229590;28;20228;-68
2022/05/13 06:43:54;;;;;;;5.47;1.67;;;12.80;99.90;;;;;;6247062;28;20232;-67
2022/05/13 06:46:59;;;;;;;8.88;1.90;;;12.80;99.90;;;;;;6246636;28;20563;-66
2022/05/13 06:50:09;;;;;;;5.25;2.00;;;13.00;99.90;;;;;;6247222;28;20223;-68
2022/05/13 06:53:17;;;;;;;6.28;1.85;;;13.10;99.90;;;;;;6246480;28;20236;-68
2022/05/13 06:56:22;;;;;;;10.65;2.08;;;13.20;99.90;;;;;;6247095;28;20205;-67
2022/05/13 06:59:28;;;;;;;9.38;2.00;;;13.20;99.90;;;;;;6246369;28;20232;-67
2022/05/13 07:02:33;;;;;;;4.40;1.90;;;13.10;99.90;;;;;;6246402;28;20236;-67
2022/05/13 07:05:41;;;;;;;4.38;1.77;;;13.30;99.90;;;;;;6247020;28;20218;-67
2022/05/13 07:08:47;;;;;;;3.17;1.63;;;13.30;99.90;;;;;;6246143;28;20237;-67
2022/05/13 07:11:54;;;;;;;1.60;1.25;;;13.40;99.90;;;;;;6265596;28;20234;-67
2022/05/13 07:14:59;;;;;;;9.25;1.75;;;13.50;99.90;;;;;;6269835;28;20302;-67
2022/05/13 07:18:06;;;;;;;6.30;1.58;;;13.50;99.90;;;;;;6270484;28;20615;-68
2022/05/13 07:21:13;;;;;;;4.40;1.50;;;13.60;99.80;;;;;;6270727;28;20234;-67
2022/05/13 07:24:18;;;;;;;6.28;1.70;;;13.70;99.80;;;;;;6270749;28;20612;-67
2022/05/13 07:27:29;;;;;;;1.70;1.58;;;13.80;98.90;;;;;;6270668;28;20597;-67
2022/05/13 07:30:34;;;;;;;3.30;1.20;;;13.80;99.00;;;;;;6270785;28;20204;-68
2022/05/13 07:33:40;;;;;;;8.40;1.73;;;14.00;99.40;;;;;;6270647;28;20238;-67
2022/05/13 07:36:53;;;;;;;3.58;1.55;;;14.00;98.50;;;;;;6270977;28;20521;-67
2022/05/13 07:43:23;;;;;;;5.75;1.90;;;14.20;98.80;;;;;;6270440;28;20554;-66
2022/05/13 07:46:28;;;;;;;5.95;1.63;;;14.20;98.90;;;;;;6269858;28;20211;-66
2022/05/13 07:49:35;;;;;;;4.53;1.80;;;14.00;97.90;;;;;;6270658;28;20274;-67
2022/05/13 07:52:42;;;;;;;4.55;2.13;;;14.10;98.00;;;;;;6272441;28;20240;-68
2022/05/13 07:55:48;;;;;;;1.30;1.20;;;14.10;97.60;;;;;;6275746;28;20214;-67
2022/05/13 07:58:53;;;;;;;3.80;1.60;;;14.10;98.90;;;;;;6274879;28;20224;-67
2022/05/13 08:01:59;;;;;;;7.32;1.40;;;14.10;97.70;;;;;;6274375;28;20227;-68
2022/05/13 08:05:05;;;;;;;3.35;1.58;;;14.20;97.10;;;;;;6275908;28;20204;-69
2022/05/13 08:08:16;;;;;;;5.22;1.60;;;14.30;97.10;;;;;;6274891;28;20635;-68
2022/05/13 08:11:21;;;;;;;4.65;1.50;;;14.30;96.40;;;;;;6275110;28;20224;-67
2022/05/13 08:14:27;;;;;;;4.00;1.38;;;14.30;95.90;;;;;;6274945;28;20658;-67
2022/05/13 08:17:34;;;;;;;2.05;1.38;;;14.30;95.50;;;;;;6274590;28;20682;-67
2022/05/13 08:20:40;;;;;;;3.72;1.40;;;14.30;95.30;;;;;;6275093;28;20248;-67
2022/05/13 08:23:47;;;;;;;3.25;1.60;;;14.30;94.40;;;;;;6274103;28;20232;-66
2022/05/13 08:26:54;;;;;;;3.90;1.63;;;14.20;94.50;;;;;;6274839;28;20314;-66
2022/05/13 08:30:01;;;;;;;8.85;2.17;;;14.10;93.90;;;;;;6273894;28;20226;-67
2022/05/13 08:33:09;;;;;;;36.08;3.75;;;14.20;94.30;;;;;;6274048;28;20244;-68
2022/05/13 08:36:14;;;;;;;2.88;1.30;;;14.30;93.50;;;;;;6274425;28;20522;-67
2022/05/13 08:39:21;;;;;;;2.13;1.35;;;14.30;93.00;;;;;;6274096;28;20236;-68
2022/05/13 08:42:47;;;;;;;3.78;1.35;;;14.30;92.40;;;;;;6272027;28;20236;-66
2022/05/13 08:45:56;;;;;;;4.10;1.38;;;14.30;92.30;;;;;;6274416;28;20204;-67
2022/05/13 08:49:08;;;;;;;4.18;1.27;;;14.40;91.30;;;;;;6274542;28;20239;-66
2022/05/13 08:55:58;;;;;;;4.22;1.50;;;14.40;90.80;;;;;;6278287;28;20204;-67
2022/05/13 08:59:08;;;;;;;4.93;1.20;;;14.50;91.00;;;;;;6279899;28;20232;-67
2022/05/13 09:02:22;;;;;;;2.65;1.20;;;14.50;89.50;;;;;;6279833;28;20197;-66
2022/05/13 09:05:30;;;;;;;1.27;1.20;;;14.50;90.00;;;;;;6279595;28;20206;-67
2022/05/13 09:08:36;;;;;;;1.25;1.13;;;14.50;86.90;;;;;;6279679;28;20543;-68
2022/05/13 09:11:49;;;;;;;1.02;1.02;;;14.60;85.40;;;;;;6281324;28;20242;-66
2022/05/13 09:15:02;;;;;;;4.72;2.70;;;14.60;82.00;;;;;;6281903;28;20231;-66
2022/05/13 09:18:17;;;;;;;1.13;1.13;;;14.60;80.40;;;;;;6281996;28;20236;-66
2022/05/13 09:21:22;;;;;;;3.30;0.98;;;14.60;82.40;;;;;;6263614;28;20275;-66
2022/05/13 09:24:28;;;;;;;1.45;1.20;;;14.50;80.00;;;;;;6276752;28;20238;-67
2022/05/13 09:27:46;;;;;;;1.25;0.90;;;14.50;80.30;;;;;;6273579;28;20238;-66
2022/05/13 09:30:55;;;;;;;1.75;0.88;;;14.60;78.60;;;;;;6274060;28;20204;-67
2022/05/13 09:34:00;;;;;;;1.55;0.90;;;14.60;76.40;;;;;;6273832;28;20251;-67
2022/05/13 09:37:12;;;;;;;0.80;0.80;;;14.60;76.70;;;;;;6273847;28;20200;-67
2022/05/13 09:40:24;;;;;;;2.17;1.13;;;14.70;76.10;;;;;;6275384;28;20208;-66
2022/05/13 09:43:44;;;;;;;1.17;1.10;;;14.70;74.90;;;;;;6279856;28;20242;-67
2022/05/13 09:46:51;;;;;;;3.70;1.23;;;14.80;75.80;;;;;;6290617;28;20204;-67
2022/05/13 09:49:57;;;;;;;1.40;1.00;;;14.80;76.10;;;;;;6292884;28;20279;-65
2022/05/13 09:53:05;;;;;;;4.68;1.27;;;14.80;76.40;;;;;;6288399;28;20237;-65
2022/05/13 09:56:14;;;;;;;1.65;0.75;;;14.70;75.60;;;;;;6274223;28;20602;-65
2022/05/13 09:59:25;;;;;;;2.38;1.10;;;14.80;74.90;;;;;;6271385;28;20235;-67
2022/05/13 10:02:36;;;;;;;1.20;1.20;;;14.90;76.00;;;;;;6271847;28;20232;-66
2022/05/13 10:05:41;;;;;;;2.33;1.10;;;14.80;75.00;;;;;;6271838;28;20228;-67
2022/05/13 10:08:53;;;;;;;3.08;0.93;;;14.80;75.10;;;;;;6272486;28;20239;-67
2022/05/13 10:15:27;;;;;;;4.05;1.30;;;14.90;73.00;;;;;;6270750;28;20220;-68
2022/05/13 10:18:37;;;;;;;1.95;1.10;;;14.90;71.50;;;;;;6272015;28;20236;-67
2022/05/13 10:21:47;;;;;;;1.70;1.60;;;15.00;73.10;;;;;;6254673;28;20227;-67
2022/05/13 10:25:03;;;;;;;1.73;1.63;;;15.10;68.90;;;;;;6273776;28;20232;-68
2022/05/13 10:28:12;;;;;;;4.93;1.33;;;15.10;69.70;;;;;;6273630;28;20231;-67
2022/05/13 10:31:22;;;;;;;1.45;1.10;;;15.20;70.40;;;;;;6272414;28;20211;-66
2022/05/13 10:34:34;;;;;;;1.85;0.98;;;15.20;69.30;;;;;;6271343;28;20231;-67
2022/05/13 10:37:52;;;;;;;2.63;1.35;;;15.20;68.70;;;;;;6270375;28;20220;-67
2022/05/13 10:41:11;;;;;;;2.17;0.98;;;15.30;66.80;;;;;;6271541;28;20206;-67
2022/05/13 10:44:23;;;;;;;1.75;0.90;;;15.30;66.20;;;;;;6271141;28;20244;-67
2022/05/13 10:47:37;;;;;;;2.63;1.20;;;15.40;67.70;;;;;;6271415;28;20250;-66
2022/05/13 10:50:52;;;;;;;4.38;1.10;;;15.30;64.80;;;;;;6271268;28;20207;-67
2022/05/13 10:54:26;;;;;;;1.58;0.98;;;15.40;64.60;;;;;;6271504;28;20235;-66
2022/05/13 10:57:35;;;;;;;2.40;0.88;;;15.50;60.00;;;;;;6270956;28;20231;-67
2022/05/13 11:00:48;;;;;;;1.98;0.80;;;15.60;56.20;;;;;;6271832;28;20219;-67
2022/05/13 11:04:01;;;;;;;2.40;1.00;;;15.60;53.90;;;;;;6270736;28;20247;-67
2022/05/13 11:07:15;;;;;;;0.65;0.65;;;15.70;52.70;;;;;;6270251;28;20211;-67
2022/05/13 11:10:30;;;;;;;0.88;0.88;;;15.70;54.30;;;;;;6271117;28;20330;-67
2022/05/13 11:13:48;;;;;;;2.17;0.77;;;15.80;55.80;;;;;;6270121;28;20235;-69
2022/05/13 11:17:02;;;;;;;1.00;1.00;;;15.90;54.30;;;;;;6272007;28;20561;-67
2022/05/13 11:20:20;;;;;;;1.05;1.02;;;16.00;55.40;;;;;;6272639;28;20627;-67
2022/05/13 11:23:36;;;;;;;3.33;0.80;;;16.00;56.00;;;;;;6273999;28;20236;-67
2022/05/13 11:26:43;;;;;;;3.20;1.08;;;16.10;56.60;;;;;;6274056;28;20224;-67
2022/05/13 11:29:54;;;;;;;1.73;1.05;;;16.10;57.20;;;;;;6276443;28;20227;-67
2022/05/13 11:33:21;;;;;;;0.95;0.90;;;16.10;57.10;;;;;;6274214;28;20242;-66
2022/05/13 11:36:42;;;;;;;1.63;0.90;;;16.10;54.90;;;;;;6275685;28;20216;-66
2022/05/13 11:40:03;;;;;;;1.02;0.90;;;16.30;56.20;;;;;;6275522;28;20238;-67
2022/05/13 11:43:30;;;;;;;1.27;1.00;;;16.20;55.70;;;;;;6275397;28;20569;-67
2022/05/13 11:46:49;;;;;;;1.48;1.23;;;16.20;55.50;;;;;;6275834;28;20591;-67
2022/05/13 11:49:55;;;;;;;3.25;1.13;;;16.20;56.20;;;;;;6274290;28;20231;-68
2022/05/13 11:53:02;;;;;;;1.10;1.08;;;16.30;55.10;;;;;;6275360;28;20323;-67
2022/05/13 11:56:17;;;;;;;1.38;1.00;;;16.30;54.70;;;;;;6275576;28;20242;-67
2022/05/13 11:59:50;;;;;;;0.98;0.98;;;16.30;55.50;;;;;;6275190;28;20250;-67
2022/05/13 12:03:02;;;;;;;1.40;0.90;;;16.30;54.30;;;;;;6229339;28;20639;-67
2022/05/13 12:06:11;;;;;;;1.52;0.80;;;16.30;51.60;;;;;;6275065;28;20586;-65
2022/05/13 12:09:23;;;;;;;1.15;1.15;;;16.50;53.00;;;;;;6275156;28;20250;-68
2022/05/13 12:12:50;;;;;;;1.08;1.08;;;16.60;54.00;;;;;;6248459;28;20236;-67
2022/05/13 12:16:12;;;;;;;2.75;2.08;;;16.60;54.90;;;;;;6250162;28;20207;-67
2022/05/13 12:19:33;;;;;;;1.70;1.60;;;16.60;54.70;;;;;;6249930;28;20259;-67
2022/05/13 12:22:49;;;;;;;1.13;1.13;;;16.60;54.10;;;;;;6249886;28;20679;-68
2022/05/13 12:25:59;;;;;;;2.67;1.00;;;16.50;52.90;;;;;;6250125;28;20690;-68
2022/05/13 12:29:20;;;;;;;1.52;0.80;;;16.60;52.90;;;;;;6249350;28;20237;-66
2022/05/13 12:32:40;;;;;;;3.90;1.00;;;16.70;51.50;;;;;;6249121;28;20221;-68
2022/05/13 12:39:19;;;;;;;1.60;1.10;;;16.70;50.30;;;;;;6249024;28;20225;-67
2022/05/13 12:42:44;;;;;;;2.88;0.98;;;16.70;52.10;;;;;;6249344;28;20225;-66
2022/05/13 12:46:05;;;;;;;0.68;0.68;;;16.80;51.40;;;;;;6249672;28;20233;-67
2022/05/13 12:49:13;;;;;;;1.15;0.90;;;16.90;51.40;;;;;;6248510;28;20235;-67
2022/05/13 12:52:34;;;;;;;2.95;0.95;;;16.90;51.00;;;;;;6249107;28;20224;-66
2022/05/13 12:55:41;;;;;;;1.00;1.00;;;16.90;51.20;;;;;;6249191;28;20213;-67
2022/05/13 12:59:00;;;;;;;1.75;1.05;;;17.00;51.30;;;;;;6248774;28;20237;-68
2022/05/13 13:02:06;;;;;;;0.95;0.70;;;16.90;51.10;;;;;;6230758;28;20205;-67
2022/05/13 13:05:18;;;;;;;1.10;1.00;;;17.00;50.90;;;;;;6249333;28;20208;-67
2022/05/13 13:08:32;;;;;;;1.98;1.98;;;17.10;52.10;;;;;;6248787;28;20233;-69
2022/05/13 13:11:59;;;;;;;2.42;1.63;;;17.10;52.30;;;;;;6267929;28;20436;-67
2022/05/13 13:15:31;;;;;;;1.10;1.10;;;17.00;52.20;;;;;;6272414;28;20214;-68
2022/05/13 13:18:37;;;;;;;0.90;0.90;;;17.00;52.60;;;;;;6272639;28;20228;-66
2022/05/13 13:21:43;;;;;;;1.65;1.08;;;17.10;52.40;;;;;;6273423;28;20204;-67
2022/05/13 13:24:49;;;;;;;3.00;0.98;;;17.10;53.30;;;;;;6273084;28;20232;-67
2022/05/13 13:27:59;;;;;;;1.70;0.95;;;17.10;53.20;;;;;;6272988;28;20239;-67
2022/05/13 13:31:11;;;;;;;2.08;1.00;;;17.00;53.40;;;;;;6273426;28;20204;-67
2022/05/13 13:34:34;;;;;;;1.38;0.80;;;16.90;53.90;;;;;;6272982;28;20278;-67
2022/05/13 13:37:41;;;;;;;2.00;0.90;;;16.80;54.50;;;;;;6273072;28;20224;-67
2022/05/13 13:40:49;;;;;;;8.15;2.50;;;16.80;54.80;;;;;;6273388;28;20670;-68
2022/05/13 13:43:56;;;;;;;3.72;2.60;;;16.80;55.20;;;;;;6272810;28;20235;-67
2022/05/13 13:47:06;;;;;;;1.65;1.55;;;16.90;54.80;;;;;;6272113;28;20224;-69
2022/05/13 13:50:17;;;;;;;1.10;1.02;;;17.10;55.10;;;;;;6271425;28;20204;-67
2022/05/13 13:53:31;;;;;;;1.38;1.02;;;17.00;55.20;;;;;;6272837;28;20333;-68
2022/05/13 13:56:42;;;;;;;1.25;1.10;;;17.00;54.60;;;;;;6272982;28;20214;-68
2022/05/13 13:59:56;;;;;;;2.65;1.15;;;16.90;55.20;;;;;;6272355;28;20228;-67
2022/05/13 14:03:06;;;;;;;1.42;0.90;;;16.80;55.70;;;;;;6272307;28;20223;-68
2022/05/13 14:06:15;;;;;;;3.38;0.93;;;16.90;56.00;;;;;;6272596;28;20208;-67
2022/05/13 14:09:27;;;;;;;4.28;1.00;;;17.00;55.90;;;;;;6271689;28;20720;-68
2022/05/13 14:12:33;;;;;;;0.90;0.90;;;17.00;55.30;;;;;;6247181;28;20248;-66
2022/05/13 14:15:44;;;;;;;1.20;0.90;;;17.00;55.10;;;;;;6229959;28;20213;-67
2022/05/13 14:18:54;;;;;;;1.77;1.02;;;16.90;55.20;;;;;;6247014;28;20660;-66
2022/05/13 14:22:03;;;;;;;1.00;1.00;;;17.00;54.90;;;;;;6247443;28;20666;-68
2022/05/13 14:25:14;;;;;;;1.67;1.10;;;16.90;55.90;;;;;;6245849;28;20215;-66
2022/05/13 14:28:20;;;;;;;3.40;1.17;;;16.80;55.80;;;;;;6246836;28;20236;-67
2022/05/13 14:31:33;;;;;;;2.78;1.20;;;16.70;56.00;;;;;;6247762;28;20206;-68
2022/05/13 14:34:41;;;;;;;2.75;1.05;;;16.80;56.60;;;;;;6245272;28;20239;-67
2022/05/13 14:37:53;;;;;;;3.30;1.20;;;16.70;56.80;;;;;;6246946;28;20232;-67
2022/05/13 14:41:01;;;;;;;1.08;1.00;;;16.80;56.00;;;;;;6247469;28;20196;-68
2022/05/13 14:44:06;;;;;;;0.98;0.90;;;16.80;57.40;;;;;;6247179;28;20228;-67
2022/05/13 14:47:20;;;;;;;1.30;1.00;;;16.90;56.60;;;;;;6247410;28;20228;-68
2022/05/13 14:50:33;;;;;;;0.82;0.73;;;16.90;56.60;;;;;;6247496;28;20228;-67
2022/05/13 14:53:50;;;;;;;2.03;1.02;;;16.80;55.40;;;;;;6246431;28;20225;-68
2022/05/13 14:57:02;;;;;;;1.17;1.08;;;16.80;56.10;;;;;;6247759;28;20205;-66
2022/05/13 15:00:16;;;;;;;0.88;0.88;;;16.90;56.10;;;;;;6246832;28;20605;-67
2022/05/13 15:03:27;;;;;;;1.25;1.10;;;17.00;56.10;;;;;;6235494;28;20234;-67
2022/05/13 15:06:44;;;;;;;2.17;1.10;;;17.00;56.50;;;;;;6253333;28;20208;-67
2022/05/13 15:09:50;;;;;;;4.15;0.90;;;17.10;55.60;;;;;;6259172;28;20225;-66
2022/05/13 15:12:56;;;;;;;5.32;1.02;;;17.20;55.60;;;;;;6279308;28;20237;-67
2022/05/13 15:16:02;;;;;;;1.25;1.15;;;17.10;55.40;;;;;;6286754;28;20215;-67
2022/05/13 15:19:24;;;;;;;1.45;0.95;;;16.90;55.90;;;;;;6287612;28;20235;-66
2022/05/13 15:22:31;;;;;;;1.40;1.10;;;16.80;55.40;;;;;;6284244;28;20253;-67
2022/05/13 15:25:39;;;;;;;1.38;1.20;;;17.00;55.70;;;;;;6282135;28;20204;-67
2022/05/13 15:28:45;;;;;;;1.45;1.35;;;17.00;55.20;;;;;;6278606;28;20238;-68
2022/05/13 15:31:50;;;;;;;1.67;1.10;;;17.00;55.80;;;;;;6278127;28;20203;-69
2022/05/13 15:34:56;;;;;;;1.20;1.10;;;16.90;55.50;;;;;;6278161;28;20227;-67
2022/05/13 15:38:02;;;;;;;3.97;3.70;;;16.90;55.10;;;;;;6277791;28;20243;-68
2022/05/13 15:41:08;;;;;;;1.20;1.20;;;16.80;55.10;;;;;;6277012;28;20207;-68
2022/05/13 15:44:13;;;;;;;3.03;1.00;;;16.80;54.90;;;;;;6275708;28;20264;-69
2022/05/13 15:47:21;;;;;;;3.45;1.30;;;16.70;54.80;;;;;;6275913;28;20227;-66
2022/05/13 15:54:11;;;;;;;1.90;1.10;;;16.70;54.30;;;;;;6257350;28;20227;-66
2022/05/13 15:57:17;;;;;;;3.38;1.60;;;16.80;54.90;;;;;;6276213;28;20240;-66
2022/05/13 16:00:31;;;;;;;1.30;1.13;;;16.80;54.30;;;;;;6275962;28;20207;-67
2022/05/13 16:03:36;;;;;;;1.30;1.30;;;16.80;54.50;;;;;;6275228;28;20700;-67
2022/05/13 16:06:42;;;;;;;4.40;1.38;;;16.80;54.50;;;;;;6276118;28;20223;-67
2022/05/13 16:09:49;;;;;;;3.53;2.10;;;16.90;54.80;;;;;;6275333;28;20224;-67
2022/05/13 16:12:59;;;;;;;1.40;1.27;;;16.90;54.00;;;;;;6247829;28;20240;-66
2022/05/13 16:16:08;;;;;;;1.50;1.40;;;16.90;53.90;;;;;;6251885;28;20204;-68
2022/05/13 16:19:18;;;;;;;3.78;1.73;;;16.90;53.50;;;;;;6250353;28;20336;-66
2022/05/13 16:22:23;;;;;;;1.60;1.50;;;16.90;54.20;;;;;;6250209;28;20232;-68
2022/05/13 16:25:31;;;;;;;5.50;1.40;;;16.80;53.10;;;;;;6250795;28;20670;-67
2022/05/13 16:28:36;;;;;;;7.88;1.10;;;16.70;54.60;;;;;;6250513;28;20236;-68
2022/05/13 16:31:43;;;;;;;1.65;1.15;;;16.70;53.90;;;;;;6251399;28;20227;-67
2022/05/13 16:34:48;;;;;;;1.40;1.30;;;16.70;54.00;;;;;;6250797;28;20228;-69
2022/05/13 16:37:54;;;;;;;2.63;1.60;;;16.70;54.10;;;;;;6249948;28;20235;-66
2022/05/13 16:41:02;;;;;;;2.72;2.15;;;16.70;53.80;;;;;;6250983;28;20205;-67
2022/05/13 16:44:08;;;;;;;2.53;2.33;;;16.60;54.10;;;;;;6250266;28;20234;-67
2022/05/13 16:47:14;;;;;;;2.13;1.30;;;16.60;54.40;;;;;;6250390;28;20496;-68
2022/05/13 16:50:24;;;;;;;5.22;1.55;;;16.70;55.00;;;;;;6250561;28;20671;-68
2022/05/13 16:53:30;;;;;;;2.38;1.10;;;16.70;54.20;;;;;;6248722;28;20236;-66
2022/05/13 16:56:40;;;;;;;2.70;1.20;;;16.70;54.40;;;;;;6249822;28;20287;-66
2022/05/13 16:59:45;;;;;;;1.67;1.40;;;16.70;54.10;;;;;;6249560;28;20243;-67